Time;durP1;ratioP1;P1;durP2;ratioP2;P2;SDS_P1;SDS_P2;PMS_P1;PMS_P2;Temp;Humidity;BMP_temperature;BMP_pressure;BME280_temperature;BME280_humidity;BME280_pressure;Samples;Min_cycle;Max_cycle;Signal;HPM_P1;HPM_P2
2021/12/25 18:43:10;;;;;;;;;;;-4.60;99.90;;;;;;6153010;23;20186;-83
2021/12/25 18:45:36;;;;;;;;;;;-4.60;99.90;;;;;;6120318;23;20238;-83
2021/12/25 18:48:04;;;;;;;;;;;-4.60;99.90;;;;;;6122894;23;19927;-82
2021/12/25 18:50:30;;;;;;;;;;;-4.60;99.90;;;;;;6147040;23;20003;-82
2021/12/25 18:52:56;;;;;;;;;;;-4.70;99.90;;;;;;6148564;23;19920;-83
2021/12/25 19:03:08;;;;;;;;;;;-4.70;99.90;;;;;;6146943;23;19924;-82
2021/12/25 19:27:56;;;;;;;;;;;-5.00;99.90;;;;;;6149375;23;19924;-82
2021/12/25 19:44:59;;;;;;;;;;;-6.40;99.90;;;;;;6128691;23;19991;-83
2021/12/25 19:47:27;;;;;;;;;;;-5.10;99.90;;;;;;6123325;23;19931;-83
2021/12/25 19:49:54;;;;;;;;;;;-5.10;99.90;;;;;;6150187;23;19966;-83
2021/12/25 19:59:56;;;;;;;;;;;-5.20;99.90;;;;;;6155876;23;19921;-82
2021/12/25 20:02:58;;;;;;;;;;;-5.50;99.90;;;;;;6125572;23;19932;-82
2021/12/25 20:11:05;;;;;;;;;;;-5.10;99.90;;;;;;6126370;23;20235;-83
2021/12/25 20:16:53;;;;;;;;;;;-5.10;99.90;;;;;;6152755;23;19916;-84
2021/12/25 20:19:18;;;;;;;;;;;-5.20;99.90;;;;;;6120945;23;19921;-83
2021/12/25 20:25:07;;;;;;;;;;;-5.10;99.90;;;;;;6156871;23;19960;-81
2021/12/25 20:31:11;;;;;;;;;;;-5.10;99.90;;;;;;6060042;23;19916;-81
2021/12/25 20:33:37;;;;;;;;;;;-5.20;99.90;;;;;;6051909;23;20237;-81
2021/12/25 20:51:24;;;;;;;;;;;-5.30;99.90;;;;;;6165719;23;19924;-82
2021/12/25 20:57:11;;;;;;;;;;;-5.30;99.90;;;;;;6121386;23;19916;-83
2021/12/25 20:59:37;;;;;;;;;;;-5.40;99.90;;;;;;6125744;23;19921;-84
2021/12/25 21:02:04;;;;;;;;;;;-4.60;99.90;;;;;;6148340;23;20014;-83
2021/12/25 21:04:30;;;;;;;;;;;-3.70;99.90;;;;;;6122533;23;19924;-83
2021/12/25 21:10:55;;;;;;;;;;;-4.40;99.90;;;;;;6150913;23;19915;-83
2021/12/25 21:13:22;;;;;;;;;;;-5.30;99.90;;;;;;6123346;23;19952;-83
2021/12/25 21:15:49;;;;;;;;;;;-5.30;99.90;;;;;;6121467;23;19933;-82
2021/12/25 21:18:15;;;;;;;;;;;-5.40;99.90;;;;;;6147180;23;19921;-81
2021/12/25 21:20:42;;;;;;;;;;;-4.70;99.90;;;;;;6147070;23;20337;-82
2021/12/25 21:23:07;;;;;;;;;;;-5.40;99.90;;;;;;6148842;23;19925;-81
2021/12/25 21:25:33;;;;;;;;;;;-5.40;99.90;;;;;;6146765;23;19925;-82
2021/12/25 21:27:59;;;;;;;;;;;-5.20;99.90;;;;;;6147016;23;19920;-81
2021/12/25 21:33:02;;;;;;;;;;;-5.40;99.90;;;;;;6122368;23;19968;-84
2021/12/25 21:35:28;;;;;;;;;;;-5.50;99.90;;;;;;6147370;23;19956;-86
2021/12/25 21:37:54;;;;;;;;;;;-5.10;99.90;;;;;;6123019;23;20336;-83
2021/12/25 21:40:20;;;;;;;;;;;-5.40;99.90;;;;;;6122485;23;19928;-83
2021/12/25 21:49:36;;;;;;;;;;;-5.50;99.90;;;;;;6145081;23;20330;-82
2021/12/25 22:11:24;;;;;;;;;;;-5.70;99.90;;;;;;6119099;23;20099;-82
2021/12/25 22:13:50;;;;;;;;;;;-3.90;99.90;;;;;;6118301;23;19924;-83
2021/12/25 22:16:16;;;;;;;;;;;-6.20;99.90;;;;;;6118368;23;20008;-83
2021/12/25 22:18:44;;;;;;;;;;;-5.70;99.90;;;;;;6120627;23;19999;-83
2021/12/25 22:21:19;;;;;;;;;;;-5.80;99.90;;;;;;6119842;23;19964;-82
2021/12/25 22:23:46;;;;;;;;;;;-5.70;99.90;;;;;;6092927;23;19921;-83
2021/12/25 22:26:12;;;;;;;;;;;-4.90;99.90;;;;;;6119276;23;20260;-83
2021/12/25 22:28:49;;;;;;;;;;;-7.50;99.90;;;;;;6119865;23;19995;-84
2021/12/25 22:31:14;;;;;;;;;;;-5.30;99.90;;;;;;6119793;23;19924;-83
2021/12/25 22:33:40;;;;;;;;;;;-5.80;99.90;;;;;;6117133;23;19921;-83
2021/12/25 22:36:06;;;;;;;;;;;-5.80;99.90;;;;;;6117561;23;19925;-83
2021/12/25 22:38:32;;;;;;;;;;;-5.80;99.90;;;;;;6118551;23;19925;-83
2021/12/25 22:41:00;;;;;;;;;;;-5.90;99.90;;;;;;6117738;23;19969;-83
2021/12/25 22:43:25;;;;;;;;;;;-5.70;99.90;;;;;;6119658;23;20019;-83
2021/12/25 22:45:51;;;;;;;;;;;-6.00;99.90;;;;;;6116745;23;19952;-84
2021/12/25 22:48:23;;;;;;;;;;;-6.00;99.90;;;;;;6092247;23;19977;-84
2021/12/25 22:50:49;;;;;;;;;;;-5.50;99.90;;;;;;6091741;23;19983;-83
2021/12/25 22:53:18;;;;;;;;;;;-3.80;99.90;;;;;;6115083;23;19921;-83
2021/12/25 22:55:44;;;;;;;;;;;-3.60;99.90;;;;;;6090041;23;19917;-83
2021/12/25 22:58:10;;;;;;;;;;;-3.00;99.90;;;;;;6094231;23;19921;-83
2021/12/25 23:00:39;;;;;;;;;;;-5.60;99.90;;;;;;6093836;23;19928;-83
2021/12/25 23:03:05;;;;;;;;;;;-4.10;99.90;;;;;;6095332;23;20203;-84
2021/12/25 23:05:34;;;;;;;;;;;-6.00;99.90;;;;;;6093184;23;19995;-83
2021/12/25 23:08:01;;;;;;;;;;;-3.90;99.90;;;;;;6092864;23;19952;-83
2021/12/25 23:10:29;;;;;;;;;;;-6.30;99.90;;;;;;6087284;23;20250;-82
2021/12/25 23:12:55;;;;;;;;;;;-5.80;99.90;;;;;;6089383;23;19937;-82
2021/12/25 23:15:20;;;;;;;;;;;-4.60;99.90;;;;;;6085720;23;19924;-83
2021/12/25 23:17:46;;;;;;;;;;;-5.90;99.90;;;;;;6089849;23;19981;-83
2021/12/25 23:20:12;;;;;;;;;;;-6.10;99.90;;;;;;6086662;23;19921;-82
2021/12/25 23:22:38;;;;;;;;;;;-4.90;99.90;;;;;;6063896;23;19929;-82
2021/12/25 23:25:04;;;;;;;;;;;-6.10;99.90;;;;;;6088015;23;20049;-82
2021/12/25 23:27:30;;;;;;;;;;;-6.20;99.90;;;;;;6085700;23;20224;-82
2021/12/25 23:29:55;;;;;;;;;;;-6.20;99.90;;;;;;6088747;23;20020;-82
2021/12/25 23:32:21;;;;;;;;;;;-6.20;99.90;;;;;;6065294;23;20005;-83
2021/12/25 23:34:46;;;;;;;;;;;-4.60;99.90;;;;;;6089295;23;19944;-82
2021/12/25 23:37:17;;;;;;;;;;;-5.40;99.90;;;;;;6087717;23;20139;-83
2021/12/25 23:39:43;;;;;;;;;;;-5.70;99.90;;;;;;6089998;23;19925;-83
2021/12/25 23:42:09;;;;;;;;;;;-6.20;99.90;;;;;;6088891;23;20365;-83
2021/12/25 23:44:34;;;;;;;;;;;-6.20;99.90;;;;;;6088647;23;20254;-82
2021/12/25 23:47:00;;;;;;;;;;;-6.20;99.90;;;;;;6090156;23;20353;-82
2021/12/25 23:49:26;;;;;;;;;;;-6.20;99.90;;;;;;6084175;23;19980;-82
2021/12/25 23:51:51;;;;;;;;;;;-6.20;99.90;;;;;;6083467;23;20353;-81
2021/12/25 23:54:17;;;;;;;;;;;-6.20;99.90;;;;;;6064502;23;20004;-81
2021/12/25 23:56:43;;;;;;;;;;;-6.20;99.90;;;;;;6087960;23;19929;-80
2021/12/25 23:59:09;;;;;;;;;;;-6.20;99.90;;;;;;6090268;23;19976;-82
